createdAt,value
2018-09-16T00:00:04.336Z,7.90
2018-09-16T00:01:04.349Z,8.10
2018-09-16T00:02:04.363Z,7.40
2018-09-16T00:03:04.375Z,7.60
2018-09-16T00:04:04.390Z,7.10
2018-09-16T00:05:04.404Z,7.20
2018-09-16T00:06:04.416Z,8.00
2018-09-16T00:07:04.430Z,9.80
2018-09-16T00:08:04.442Z,8.50
2018-09-16T00:09:04.456Z,7.30
2018-09-16T00:10:04.471Z,7.30
2018-09-16T00:11:04.515Z,7.70
2018-09-16T00:12:04.501Z,7.40
2018-09-16T00:13:04.515Z,7.50
2018-09-16T00:14:04.529Z,7.50
2018-09-16T00:16:05.214Z,7.50
2018-09-16T00:17:04.577Z,7.70
2018-09-16T00:18:04.584Z,7.40
2018-09-16T00:19:04.599Z,7.10
2018-09-16T00:20:04.609Z,7.50
2018-09-16T00:21:04.626Z,7.30
2018-09-16T00:22:04.635Z,7.40
2018-09-16T00:23:04.647Z,7.50
2018-09-16T00:24:04.662Z,7.30
2018-09-16T00:25:04.684Z,7.20
2018-09-16T00:26:04.690Z,7.60
2018-09-16T00:27:04.705Z,7.40
2018-09-16T00:28:04.725Z,7.40
2018-09-16T00:29:04.733Z,7.00
2018-09-16T00:30:04.747Z,7.60
2018-09-16T00:31:04.762Z,7.80
2018-09-16T00:32:04.777Z,8.40
2018-09-16T00:33:04.793Z,7.80
2018-09-16T00:34:04.805Z,8.20
2018-09-16T00:35:04.817Z,8.30
2018-09-16T00:36:04.828Z,8.70
2018-09-16T00:37:04.851Z,9.00
2018-09-16T00:38:04.857Z,8.20
2018-09-16T00:39:04.875Z,8.50
2018-09-16T00:40:04.900Z,8.20
2018-09-16T00:41:04.923Z,8.30
2018-09-16T00:42:04.913Z,8.50
2018-09-16T00:43:04.925Z,8.40
2018-09-16T00:44:04.961Z,8.40
2018-09-16T00:45:04.952Z,8.50
2018-09-16T00:46:05.030Z,8.70
2018-09-16T00:47:05.020Z,8.00
2018-09-16T00:48:04.998Z,7.90
2018-09-16T00:49:05.030Z,8.50
2018-09-16T00:50:05.023Z,8.90
2018-09-16T00:51:05.035Z,8.60
2018-09-16T00:52:05.050Z,9.10
2018-09-16T00:53:05.063Z,9.20
2018-09-16T00:54:05.078Z,8.90
2018-09-16T00:55:05.092Z,9.20
2018-09-16T00:56:05.104Z,8.60
2018-09-16T00:57:05.120Z,9.10
2018-09-16T00:58:05.132Z,9.10
2018-09-16T00:59:05.144Z,9.00
2018-09-16T01:00:05.168Z,8.90
2018-09-16T01:01:05.173Z,9.50
2018-09-16T01:02:05.189Z,9.40
2018-09-16T01:03:05.216Z,9.60
2018-09-16T01:04:05.222Z,9.50
2018-09-16T01:05:05.258Z,9.20
2018-09-16T01:06:05.266Z,9.40
2018-09-16T01:07:05.259Z,9.20
2018-09-16T01:08:05.265Z,9.80
2018-09-16T01:09:05.282Z,9.40
2018-09-16T01:10:05.299Z,10.20
2018-09-16T01:11:05.308Z,10.00
2018-09-16T01:12:05.349Z,9.90
2018-09-16T01:13:05.355Z,10.00
2018-09-16T01:14:05.350Z,9.90
2018-09-16T01:15:05.365Z,9.70
2018-09-16T01:16:05.417Z,10.10
2018-09-16T01:17:05.392Z,10.00
2018-09-16T01:18:05.505Z,10.30
2018-09-16T01:19:05.670Z,9.60
2018-09-16T01:22:05.504Z,10.70
2018-09-16T01:23:05.476Z,10.10
2018-09-16T01:24:05.488Z,10.10
2018-09-16T01:25:05.501Z,11.20
2018-09-16T01:26:05.515Z,10.20
2018-09-16T01:27:05.527Z,10.10
2018-09-16T01:28:05.544Z,10.60
2018-09-16T01:29:05.552Z,10.20
2018-09-16T01:30:05.566Z,10.60
2018-09-16T01:31:05.582Z,10.20
2018-09-16T01:32:05.594Z,10.20
2018-09-16T01:33:05.618Z,11.40
2018-09-16T01:34:05.634Z,10.90
2018-09-16T01:35:05.641Z,10.80
2018-09-16T01:36:05.651Z,10.50
2018-09-16T01:37:05.664Z,10.90
2018-09-16T01:38:05.683Z,10.70
2018-09-16T01:39:05.691Z,11.10
2018-09-16T01:40:05.702Z,10.50
2018-09-16T01:41:05.742Z,10.80
2018-09-16T01:42:05.742Z,10.90
2018-09-16T01:43:05.746Z,11.00
2018-09-16T01:44:05.756Z,11.50
2018-09-16T01:45:05.770Z,11.20
2018-09-16T01:46:05.787Z,10.70
2018-09-16T01:47:05.798Z,11.10
2018-09-16T01:48:05.817Z,10.40
2018-09-16T01:49:05.833Z,11.20
2018-09-16T01:50:05.840Z,10.60
2018-09-16T01:51:05.854Z,11.40
2018-09-16T01:52:05.968Z,10.80
2018-09-16T01:53:06.007Z,11.80
2018-09-16T01:54:06.712Z,10.90
2018-09-16T01:55:05.911Z,11.30
2018-09-16T01:56:05.931Z,11.60
2018-09-16T01:57:05.935Z,11.90
2018-09-16T01:58:05.963Z,11.70
2018-09-16T01:59:05.963Z,11.80
2018-09-16T02:00:05.976Z,11.30
2018-09-16T02:01:06.018Z,11.50
2018-09-16T02:02:06.013Z,11.60
2018-09-16T02:03:06.016Z,12.60
2018-09-16T02:04:06.029Z,11.70
2018-09-16T02:05:06.050Z,12.10
2018-09-16T02:06:06.055Z,12.20
2018-09-16T02:07:06.089Z,12.60
2018-09-16T02:08:06.080Z,12.50
2018-09-16T02:09:06.096Z,12.30
2018-09-16T02:10:06.118Z,12.20
2018-09-16T02:11:06.125Z,12.20
2018-09-16T02:12:06.135Z,12.40
2018-09-16T02:13:06.149Z,11.90
2018-09-16T02:14:06.163Z,12.50
2018-09-16T02:15:06.176Z,11.80
2018-09-16T02:16:06.192Z,12.40
2018-09-16T02:17:06.212Z,12.60
2018-09-16T02:18:06.220Z,12.20
2018-09-16T02:19:06.237Z,12.30
2018-09-16T02:20:06.244Z,12.40
2018-09-16T02:21:06.256Z,11.40
2018-09-16T02:22:06.273Z,11.70
2018-09-16T02:23:06.296Z,12.80
2018-09-16T02:24:06.296Z,12.30
2018-09-16T02:25:06.452Z,12.10
2018-09-16T02:26:06.435Z,11.90
2018-09-16T02:27:06.339Z,12.10
2018-09-16T02:28:06.464Z,12.60
2018-09-16T02:29:06.363Z,12.80
2018-09-16T02:30:06.377Z,11.70
2018-09-16T02:31:06.399Z,11.90
2018-09-16T02:32:06.410Z,11.80
2018-09-16T02:33:06.429Z,11.70
2018-09-16T02:34:06.456Z,12.90
2018-09-16T02:35:06.444Z,12.40
2018-09-16T02:36:06.460Z,11.30
2018-09-16T02:37:06.472Z,11.70
2018-09-16T02:38:06.490Z,12.00
2018-09-16T02:39:06.501Z,12.20
2018-09-16T02:40:06.537Z,11.40
2018-09-16T02:41:06.528Z,11.80
2018-09-16T02:42:06.553Z,12.20
2018-09-16T02:43:06.550Z,12.10
2018-09-16T02:44:06.568Z,12.30
2018-09-16T02:45:06.579Z,12.30
2018-09-16T02:46:06.606Z,11.40
2018-09-16T02:47:06.629Z,11.10
2018-09-16T02:48:06.627Z,11.80
2018-09-16T02:49:06.667Z,11.60
2018-09-16T02:50:06.648Z,11.90
2018-09-16T02:51:06.656Z,12.20
2018-09-16T02:52:06.675Z,12.30
2018-09-16T02:53:06.695Z,12.40
2018-09-16T02:54:07.007Z,11.70
2018-09-16T02:55:06.710Z,11.40
2018-09-16T02:56:06.824Z,11.90
2018-09-16T02:57:06.740Z,12.00
2018-09-16T02:58:06.754Z,12.00
2018-09-16T02:59:07.017Z,10.90
2018-09-16T03:00:06.849Z,11.30
2018-09-16T03:01:06.840Z,11.30
2018-09-16T03:02:06.820Z,11.40
2018-09-16T03:03:06.863Z,11.30
2018-09-16T03:04:06.832Z,11.10
2018-09-16T03:05:06.850Z,11.80
2018-09-16T03:06:06.862Z,11.00
2018-09-16T03:07:06.879Z,11.50
2018-09-16T03:08:06.904Z,10.70
2018-09-16T03:09:06.899Z,11.50
2018-09-16T03:10:06.919Z,11.10
2018-09-16T03:11:06.942Z,11.50
2018-09-16T03:12:06.937Z,11.80
2018-09-16T03:13:06.956Z,11.40
2018-09-16T03:14:06.972Z,11.10
2018-09-16T03:15:06.982Z,12.20
2018-09-16T03:16:06.998Z,11.70
2018-09-16T03:17:07.008Z,11.50
2018-09-16T03:18:07.022Z,11.50
2018-09-16T03:19:07.035Z,12.40
2018-09-16T03:20:07.057Z,12.00
2018-09-16T03:21:07.062Z,11.30
2018-09-16T03:22:07.080Z,11.70
2018-09-16T03:23:07.085Z,11.00
2018-09-16T03:24:07.102Z,11.70
2018-09-16T03:25:07.140Z,11.90
2018-09-16T03:26:07.128Z,12.00
2018-09-16T03:27:07.160Z,11.10
2018-09-16T03:28:07.153Z,11.70
2018-09-16T03:29:07.166Z,12.10
2018-09-16T03:30:07.246Z,11.80
2018-09-16T03:33:07.710Z,11.60
2018-09-16T03:34:07.286Z,12.10
2018-09-16T03:35:08.001Z,12.10
2018-09-16T03:36:07.263Z,11.90
2018-09-16T03:37:07.270Z,11.70
2018-09-16T03:38:07.279Z,11.90
2018-09-16T03:39:07.292Z,12.10
2018-09-16T03:40:07.305Z,11.80
2018-09-16T03:41:07.319Z,11.90
2018-09-16T03:42:07.331Z,11.80
2018-09-16T03:43:07.345Z,11.40
2018-09-16T03:44:07.358Z,12.30
2018-09-16T03:45:07.372Z,12.30
2018-09-16T03:46:07.388Z,12.00
2018-09-16T03:47:07.399Z,12.20
2018-09-16T03:48:07.412Z,11.50
2018-09-16T03:49:07.426Z,11.80
2018-09-16T03:50:07.439Z,11.70
2018-09-16T03:51:07.456Z,12.00
2018-09-16T03:52:07.464Z,11.80
2018-09-16T03:53:07.481Z,12.30
2018-09-16T03:54:07.493Z,11.70
2018-09-16T03:55:07.506Z,12.10
2018-09-16T03:56:07.519Z,11.20
2018-09-16T03:57:07.535Z,11.90
2018-09-16T03:58:07.545Z,12.20
2018-09-16T03:59:07.558Z,11.70
2018-09-16T04:00:07.588Z,12.20
2018-09-16T04:01:07.585Z,11.40
2018-09-16T04:02:07.598Z,12.10
2018-09-16T04:03:07.619Z,11.80
2018-09-16T04:04:07.627Z,11.80
2018-09-16T04:05:07.649Z,12.40
2018-09-16T04:06:08.003Z,11.80
2018-09-16T04:07:07.665Z,12.10
2018-09-16T04:08:07.678Z,11.80
2018-09-16T04:09:07.690Z,12.30
2018-09-16T04:10:07.703Z,12.20
2018-09-16T04:11:07.718Z,12.30
2018-09-16T04:12:07.733Z,12.70
2018-09-16T04:13:07.750Z,12.00
2018-09-16T04:14:07.759Z,12.50
2018-09-16T04:15:07.775Z,12.10
2018-09-16T04:16:07.784Z,11.80
2018-09-16T04:17:07.798Z,12.30
2018-09-16T04:18:07.816Z,12.40
2018-09-16T04:19:07.823Z,12.60
2018-09-16T04:20:07.838Z,12.10
2018-09-16T04:21:07.913Z,12.10
2018-09-16T04:22:07.865Z,12.10
2018-09-16T04:23:07.884Z,12.70
2018-09-16T04:24:07.888Z,12.30
2018-09-16T04:25:07.902Z,12.30
2018-09-16T04:26:07.917Z,12.30
2018-09-16T04:27:07.927Z,12.50
2018-09-16T04:28:07.954Z,12.60
2018-09-16T04:29:07.961Z,12.50
2018-09-16T04:30:07.972Z,12.30
2018-09-16T04:31:07.984Z,13.20
2018-09-16T04:32:07.998Z,12.20
2018-09-16T04:33:08.013Z,13.00
2018-09-16T04:34:08.037Z,12.90
2018-09-16T04:35:08.084Z,12.80
2018-09-16T04:36:08.058Z,12.60
2018-09-16T04:37:08.080Z,12.10
2018-09-16T04:38:08.074Z,12.70
2018-09-16T04:39:08.090Z,13.00
2018-09-16T04:40:08.101Z,13.40
2018-09-16T04:41:08.113Z,13.30
2018-09-16T04:42:08.128Z,13.30
2018-09-16T04:43:08.140Z,13.50
2018-09-16T04:44:08.153Z,13.10
2018-09-16T04:45:08.180Z,13.40
2018-09-16T04:46:08.180Z,12.80
2018-09-16T04:47:08.192Z,13.20
2018-09-16T04:48:08.207Z,13.20
2018-09-16T04:49:08.220Z,13.80
2018-09-16T04:50:08.234Z,13.60
2018-09-16T04:51:08.246Z,13.10
2018-09-16T04:52:08.264Z,13.40
2018-09-16T04:53:08.273Z,13.80
2018-09-16T04:54:08.329Z,13.60
2018-09-16T04:55:08.309Z,13.70
2018-09-16T04:56:08.315Z,13.60
2018-09-16T04:57:08.324Z,13.90
2018-09-16T04:58:08.337Z,13.70
2018-09-16T04:59:08.352Z,12.60
2018-09-16T05:00:08.528Z,12.80
2018-09-16T05:01:08.441Z,13.90
2018-09-16T05:02:08.391Z,13.70
2018-09-16T05:03:08.402Z,13.80
2018-09-16T05:04:08.415Z,13.00
2018-09-16T05:05:08.480Z,12.90
2018-09-16T05:06:08.593Z,13.10
2018-09-16T05:08:08.884Z,12.90
2018-09-16T05:09:08.865Z,13.50
2018-09-16T05:11:08.514Z,13.10
2018-09-16T05:12:08.527Z,13.00
2018-09-16T05:13:08.553Z,13.20
2018-09-16T05:14:08.548Z,12.40
2018-09-16T05:15:08.561Z,13.20
2018-09-16T05:16:08.577Z,13.30
2018-09-16T05:17:08.600Z,13.40
2018-09-16T05:18:08.603Z,13.70
2018-09-16T05:19:08.616Z,12.80
2018-09-16T05:20:08.627Z,12.90
2018-09-16T05:21:08.641Z,13.10
2018-09-16T05:22:08.659Z,12.20
2018-09-16T05:23:08.677Z,13.00
2018-09-16T05:24:08.680Z,12.50
2018-09-16T05:25:08.692Z,13.20
2018-09-16T05:26:08.812Z,12.90
2018-09-16T05:27:08.721Z,12.60
2018-09-16T05:28:08.805Z,12.00
2018-09-16T05:29:08.757Z,12.90
2018-09-16T05:30:08.757Z,12.50
2018-09-16T05:31:08.771Z,12.90
2018-09-16T05:32:08.815Z,12.60
2018-09-16T05:33:08.813Z,12.40
2018-09-16T05:34:08.810Z,12.40
2018-09-16T05:35:08.823Z,12.30
2018-09-16T05:36:08.835Z,13.20
2018-09-16T05:37:09.007Z,12.50
2018-09-16T05:38:08.864Z,13.30
2018-09-16T05:39:09.104Z,12.20
2018-09-16T05:40:08.956Z,12.80
2018-09-16T05:41:08.944Z,12.90
2018-09-16T05:42:08.921Z,13.50
2018-09-16T05:43:09.026Z,12.80
2018-09-16T05:44:08.946Z,12.80
2018-09-16T05:45:08.952Z,12.30
2018-09-16T05:46:08.966Z,12.30
2018-09-16T05:47:08.979Z,12.50
2018-09-16T05:48:08.994Z,13.10
2018-09-16T05:49:09.009Z,12.80
2018-09-16T05:50:09.019Z,13.10
2018-09-16T05:51:09.030Z,13.30
2018-09-16T05:52:09.046Z,13.00
2018-09-16T05:53:09.131Z,13.20
2018-09-16T05:54:09.093Z,13.30
2018-09-16T05:55:09.083Z,13.30
2018-09-16T05:56:09.097Z,12.90
2018-09-16T05:57:09.120Z,12.90
2018-09-16T05:58:09.123Z,13.70
2018-09-16T05:59:09.176Z,13.40
2018-09-16T06:00:09.151Z,13.60
2018-09-16T06:01:09.163Z,14.20
2018-09-16T06:02:09.185Z,13.30
2018-09-16T06:03:09.192Z,13.20
2018-09-16T06:04:09.204Z,12.70
2018-09-16T06:05:09.313Z,12.60
2018-09-16T06:06:09.232Z,13.60
2018-09-16T06:07:09.248Z,13.40
2018-09-16T06:08:09.262Z,12.90
2018-09-16T06:09:09.270Z,13.20
2018-09-16T06:11:09.346Z,13.20
2018-09-16T06:12:09.707Z,13.50
2018-09-16T06:13:09.762Z,13.00
2018-09-16T06:14:09.887Z,13.20
2018-09-16T06:15:09.348Z,13.10
2018-09-16T06:16:09.357Z,13.50
2018-09-16T06:17:09.375Z,12.80
2018-09-16T06:18:09.392Z,13.00
2018-09-16T06:19:09.601Z,11.90
2018-09-16T06:20:09.493Z,12.20
2018-09-16T06:21:09.424Z,12.90
2018-09-16T06:22:09.457Z,12.30
2018-09-16T06:23:09.455Z,12.50
2018-09-16T06:24:09.470Z,12.50
2018-09-16T06:25:09.477Z,12.70
2018-09-16T06:26:09.487Z,13.80
2018-09-16T06:27:09.502Z,12.30
2018-09-16T06:28:09.516Z,13.00
2018-09-16T06:29:09.531Z,12.40
2018-09-16T06:30:09.544Z,13.30
2018-09-16T06:31:09.553Z,13.00
2018-09-16T06:32:09.571Z,12.80
2018-09-16T06:33:09.597Z,12.60
2018-09-16T06:34:09.602Z,12.30
2018-09-16T06:35:09.609Z,12.40
2018-09-16T06:36:09.625Z,12.30
2018-09-16T06:37:09.640Z,34.70
2018-09-16T06:38:09.649Z,21.40
2018-09-16T06:39:09.663Z,13.70
2018-09-16T06:40:09.680Z,12.30
2018-09-16T06:41:09.774Z,13.50
2018-09-16T06:42:09.700Z,13.10
2018-09-16T06:43:09.711Z,12.80
2018-09-16T06:44:09.832Z,12.30
2018-09-16T06:45:09.908Z,12.70
2018-09-16T06:46:09.760Z,12.40
2018-09-16T06:47:09.785Z,12.20
2018-09-16T06:48:09.780Z,12.30
2018-09-16T06:49:09.795Z,12.10
2018-09-16T06:50:09.808Z,12.90
2018-09-16T06:51:09.823Z,13.20
2018-09-16T06:52:09.831Z,12.80
2018-09-16T06:53:09.851Z,12.30
2018-09-16T06:54:09.861Z,12.60
2018-09-16T06:55:09.873Z,12.60
2018-09-16T06:56:09.886Z,12.50
2018-09-16T06:57:09.899Z,12.10
2018-09-16T06:58:09.934Z,12.20
2018-09-16T06:59:09.928Z,12.50
2018-09-16T07:00:09.940Z,12.60
2018-09-16T07:01:09.965Z,12.30
2018-09-16T07:02:09.966Z,11.80
2018-09-16T07:03:09.977Z,12.30
2018-09-16T07:04:10.001Z,12.10
2018-09-16T07:05:10.012Z,11.90
2018-09-16T07:06:10.019Z,11.60
2018-09-16T07:07:10.032Z,11.90
2018-09-16T07:08:10.090Z,12.30
2018-09-16T07:09:10.059Z,12.00
2018-09-16T07:10:10.073Z,12.00
2018-09-16T07:11:10.088Z,11.60
2018-09-16T07:12:10.218Z,11.20
2018-09-16T07:13:10.112Z,11.40
2018-09-16T07:14:10.129Z,12.50
2018-09-16T07:15:10.140Z,11.70
2018-09-16T07:16:10.189Z,11.50
2018-09-16T07:18:10.301Z,10.80
2018-09-16T07:19:10.320Z,11.40
2018-09-16T07:20:10.224Z,11.80
2018-09-16T07:21:10.223Z,11.60
2018-09-16T07:22:10.234Z,11.80
2018-09-16T07:23:10.248Z,10.90
2018-09-16T07:24:10.321Z,10.60
2018-09-16T07:25:10.378Z,10.50
2018-09-16T07:26:10.342Z,10.80
2018-09-16T07:27:10.355Z,10.60
2018-09-16T07:28:10.384Z,10.70
2018-09-16T07:29:10.335Z,10.50
2018-09-16T07:30:10.378Z,10.30
2018-09-16T07:31:10.357Z,10.30
2018-09-16T07:32:10.370Z,10.50
2018-09-16T07:33:10.387Z,10.00
2018-09-16T07:34:10.431Z,10.00
2018-09-16T07:35:10.419Z,9.30
2018-09-16T07:36:10.430Z,9.70
2018-09-16T07:37:10.441Z,9.90
2018-09-16T07:38:10.455Z,9.70
2018-09-16T07:39:10.466Z,10.20
2018-09-16T07:40:10.497Z,9.10
2018-09-16T07:41:10.502Z,9.40
2018-09-16T07:42:10.508Z,9.50
2018-09-16T07:43:10.520Z,8.80
2018-09-16T07:44:10.536Z,9.30
2018-09-16T07:45:10.554Z,9.50
2018-09-16T07:46:10.566Z,8.70
2018-09-16T07:47:10.579Z,9.50
2018-09-16T07:48:10.591Z,9.00
2018-09-16T07:49:10.609Z,9.00
2018-09-16T07:50:10.621Z,8.70
2018-09-16T07:51:10.686Z,8.80
2018-09-16T07:52:10.777Z,8.50
2018-09-16T07:53:10.679Z,8.50
2018-09-16T07:54:10.681Z,7.90
2018-09-16T07:55:10.693Z,8.60
2018-09-16T07:56:10.709Z,8.20
2018-09-16T07:57:10.724Z,9.20
2018-09-16T07:58:10.739Z,8.40
2018-09-16T07:59:10.746Z,8.20
2018-09-16T08:00:10.762Z,7.80
2018-09-16T08:01:10.774Z,8.30
2018-09-16T08:02:10.791Z,8.20
2018-09-16T08:03:10.804Z,8.00
2018-09-16T08:04:10.816Z,8.10
2018-09-16T08:05:10.830Z,8.10
2018-09-16T08:06:10.875Z,8.20
2018-09-16T08:07:10.859Z,8.50
2018-09-16T08:08:10.881Z,7.80
2018-09-16T08:09:10.887Z,7.90
2018-09-16T08:10:10.924Z,7.50
2018-09-16T08:11:10.933Z,7.40
2018-09-16T08:12:10.931Z,7.60
2018-09-16T08:13:10.944Z,7.80
2018-09-16T08:14:10.965Z,7.70
2018-09-16T08:15:10.974Z,7.80
2018-09-16T08:16:10.993Z,7.30
2018-09-16T08:17:11.004Z,7.40
2018-09-16T08:18:11.025Z,7.60
2018-09-16T08:19:11.034Z,7.10
2018-09-16T08:20:11.049Z,7.30
2018-09-16T08:21:11.072Z,7.30
2018-09-16T08:23:11.428Z,7.30
2018-09-16T08:24:11.113Z,6.90
2018-09-16T08:25:11.117Z,7.00
2018-09-16T08:26:11.144Z,6.80
2018-09-16T08:27:11.143Z,7.30
2018-09-16T08:28:11.205Z,6.80
2018-09-16T08:29:11.175Z,6.90
2018-09-16T08:30:11.192Z,6.80
2018-09-16T08:31:11.202Z,7.00
2018-09-16T08:32:11.218Z,6.80
2018-09-16T08:33:11.233Z,6.90
2018-09-16T08:34:11.268Z,6.60
2018-09-16T08:35:11.264Z,6.60
2018-09-16T08:36:11.277Z,6.20
2018-09-16T08:37:11.291Z,6.30
2018-09-16T08:38:11.304Z,6.20
2018-09-16T08:39:11.320Z,5.90
2018-09-16T08:40:11.333Z,6.20
2018-09-16T08:41:11.354Z,6.10
2018-09-16T08:42:11.364Z,6.00
2018-09-16T08:43:11.377Z,5.80
2018-09-16T08:44:11.399Z,6.10
2018-09-16T08:45:11.409Z,5.30
2018-09-16T08:46:11.423Z,5.40
2018-09-16T08:47:11.441Z,5.30
2018-09-16T08:48:11.464Z,5.40
2018-09-16T08:49:11.466Z,5.20
2018-09-16T08:50:11.481Z,5.10
2018-09-16T08:51:11.493Z,4.90
2018-09-16T08:52:11.566Z,5.50
2018-09-16T08:53:11.582Z,5.30
2018-09-16T08:54:11.614Z,5.20
2018-09-16T08:55:11.576Z,5.30
2018-09-16T08:56:11.584Z,4.90
2018-09-16T08:57:11.584Z,5.20
2018-09-16T08:58:12.641Z,5.20
2018-09-16T08:59:11.612Z,4.70
2018-09-16T09:00:11.652Z,5.10
2018-09-16T09:01:11.641Z,4.90
2018-09-16T09:02:11.658Z,4.70
2018-09-16T09:03:11.673Z,4.50
2018-09-16T09:04:11.722Z,4.60
2018-09-16T09:05:11.702Z,4.20
2018-09-16T09:06:11.716Z,4.10
2018-09-16T09:07:11.732Z,4.20
2018-09-16T09:08:11.746Z,4.30
2018-09-16T09:09:11.761Z,4.50
2018-09-16T09:10:11.774Z,3.90
2018-09-16T09:11:11.788Z,4.50
2018-09-16T09:12:11.805Z,4.10
2018-09-16T09:13:11.825Z,4.30
2018-09-16T09:14:11.917Z,4.00
2018-09-16T09:15:11.851Z,3.60
2018-09-16T09:16:11.863Z,3.80
2018-09-16T09:17:11.881Z,3.80
2018-09-16T09:18:11.893Z,4.00
2018-09-16T09:19:11.908Z,3.20
2018-09-16T09:20:11.942Z,3.40
2018-09-16T09:21:11.937Z,3.70
2018-09-16T09:22:11.958Z,3.10
2018-09-16T09:23:12.023Z,3.80
2018-09-16T09:24:11.982Z,3.70
2018-09-16T09:25:12.002Z,3.50
2018-09-16T09:26:12.559Z,3.60
2018-09-16T09:28:12.093Z,3.20
2018-09-16T09:29:12.062Z,3.30
2018-09-16T09:30:12.073Z,3.30
2018-09-16T09:31:12.086Z,3.00
2018-09-16T09:32:12.101Z,3.20
2018-09-16T09:33:12.118Z,3.20
2018-09-16T09:34:12.130Z,3.00
2018-09-16T09:35:12.145Z,2.90
2018-09-16T09:36:12.160Z,3.10
2018-09-16T09:37:12.176Z,2.80
2018-09-16T09:38:12.192Z,2.70
2018-09-16T09:39:12.207Z,2.70
2018-09-16T09:40:12.220Z,2.40
2018-09-16T09:41:12.236Z,2.80
2018-09-16T09:42:12.251Z,2.80
2018-09-16T09:43:12.268Z,2.50
2018-09-16T09:44:12.289Z,2.50
2018-09-16T09:45:12.304Z,2.50
2018-09-16T09:46:12.316Z,2.80
2018-09-16T09:47:12.331Z,2.00
2018-09-16T09:48:12.345Z,2.60
2018-09-16T09:49:12.352Z,2.40
2018-09-16T09:50:12.373Z,2.60
2018-09-16T09:51:12.387Z,2.60
2018-09-16T09:52:12.402Z,2.80
2018-09-16T09:53:12.477Z,2.50
2018-09-16T09:54:12.429Z,2.70
2018-09-16T09:55:12.442Z,2.70
2018-09-16T09:56:12.457Z,2.20
2018-09-16T09:57:12.474Z,2.40
2018-09-16T09:58:12.487Z,2.20
2018-09-16T09:59:12.573Z,2.60
2018-09-16T10:00:12.583Z,2.50
2018-09-16T10:01:12.533Z,2.90
2018-09-16T10:02:12.550Z,2.60
2018-09-16T10:03:12.561Z,2.60
2018-09-16T10:04:12.578Z,2.50
2018-09-16T10:05:12.641Z,2.70
2018-09-16T10:06:12.652Z,2.40
2018-09-16T10:07:12.623Z,2.40
2018-09-16T10:08:12.641Z,2.20
2018-09-16T10:09:12.956Z,2.80
2018-09-16T10:10:12.668Z,2.40
2018-09-16T10:11:12.682Z,2.40
2018-09-16T10:12:12.699Z,2.40
2018-09-16T10:13:12.716Z,2.60
2018-09-16T10:14:12.797Z,2.30
2018-09-16T10:15:12.744Z,2.70
2018-09-16T10:16:12.760Z,2.40
2018-09-16T10:17:12.771Z,2.80
2018-09-16T10:18:12.788Z,2.30
2018-09-16T10:19:12.802Z,2.50
2018-09-16T10:20:12.817Z,2.20
2018-09-16T10:21:12.835Z,2.50
2018-09-16T10:22:12.850Z,2.50
2018-09-16T10:23:12.863Z,2.20
2018-09-16T10:24:12.891Z,2.40
2018-09-16T10:25:12.895Z,2.20
2018-09-16T10:26:12.908Z,2.60
2018-09-16T10:27:12.926Z,2.60
2018-09-16T10:28:12.940Z,2.10
2018-09-16T10:29:13.083Z,2.20
2018-09-16T10:30:13.053Z,2.10
2018-09-16T10:31:13.074Z,2.20
2018-09-16T10:32:13.387Z,2.20
2018-09-16T10:33:13.020Z,2.40
2018-09-16T10:34:13.038Z,1.90
2018-09-16T10:35:13.046Z,2.10
2018-09-16T10:36:13.063Z,2.00
2018-09-16T10:37:13.082Z,2.00
2018-09-16T10:38:13.095Z,2.40
2018-09-16T10:39:13.107Z,2.10
2018-09-16T10:40:13.125Z,2.20
2018-09-16T10:41:13.140Z,2.00
2018-09-16T10:42:13.157Z,2.10
2018-09-16T10:43:13.173Z,2.30
2018-09-16T10:44:13.184Z,2.00
2018-09-16T10:45:13.200Z,2.20
2018-09-16T10:46:13.213Z,2.00
2018-09-16T10:47:13.234Z,1.70
2018-09-16T10:48:13.248Z,2.20
2018-09-16T10:49:13.259Z,2.40
2018-09-16T10:50:13.276Z,1.70
2018-09-16T10:51:13.396Z,1.90
2018-09-16T10:52:13.313Z,2.20
2018-09-16T10:53:13.324Z,2.20
2018-09-16T10:54:13.336Z,2.20
2018-09-16T10:55:13.364Z,2.00
2018-09-16T10:56:13.371Z,2.20
2018-09-16T10:57:13.383Z,1.80
2018-09-16T10:58:13.399Z,2.20
2018-09-16T10:59:13.414Z,2.00
2018-09-16T11:00:13.429Z,1.80
2018-09-16T11:01:13.443Z,1.80
2018-09-16T11:02:13.460Z,2.10
2018-09-16T11:03:13.478Z,1.70
2018-09-16T11:04:13.490Z,1.90
2018-09-16T11:05:13.517Z,1.50
2018-09-16T11:06:14.021Z,2.10
2018-09-16T11:07:14.341Z,2.10
2018-09-16T11:08:13.623Z,1.80
2018-09-16T11:09:13.567Z,2.00
2018-09-16T11:10:13.582Z,2.10
2018-09-16T11:11:13.597Z,2.00
2018-09-16T11:12:13.610Z,1.80
2018-09-16T11:13:13.631Z,2.00
2018-09-16T11:14:13.642Z,2.00
2018-09-16T11:15:13.666Z,1.80
2018-09-16T11:16:13.681Z,1.90
2018-09-16T11:17:13.685Z,1.80
2018-09-16T11:18:13.705Z,1.80
2018-09-16T11:19:13.723Z,1.90
2018-09-16T11:20:13.751Z,2.10
2018-09-16T11:21:13.757Z,1.70
2018-09-16T11:22:13.843Z,1.90
2018-09-16T11:23:13.788Z,1.50
2018-09-16T11:24:13.809Z,1.50
2018-09-16T11:25:13.813Z,1.90
2018-09-16T11:26:13.827Z,1.80
2018-09-16T11:27:13.845Z,1.90
2018-09-16T11:28:13.859Z,1.90
2018-09-16T11:29:13.874Z,1.80
2018-09-16T11:30:13.922Z,1.90
2018-09-16T11:31:13.935Z,1.80
2018-09-16T11:32:13.921Z,2.10
2018-09-16T11:33:13.935Z,1.70
2018-09-16T11:34:13.954Z,1.60
2018-09-16T11:35:13.974Z,1.80
2018-09-16T11:36:13.982Z,1.60
2018-09-16T11:37:14.014Z,1.90
2018-09-16T11:38:14.014Z,1.60
2018-09-16T11:39:14.110Z,2.00
2018-09-16T11:40:14.083Z,2.00
2018-09-16T11:41:14.060Z,1.60
2018-09-16T11:42:14.077Z,1.90
2018-09-16T11:43:14.088Z,1.90
2018-09-16T11:44:14.098Z,2.10
2018-09-16T11:45:14.116Z,1.80
2018-09-16T11:46:14.132Z,2.00
2018-09-16T11:47:14.148Z,1.90
2018-09-16T11:48:14.169Z,1.70
2018-09-16T11:49:14.178Z,1.70
2018-09-16T11:50:14.221Z,1.60
2018-09-16T11:51:14.210Z,1.80
2018-09-16T11:52:14.225Z,1.90
2018-09-16T11:53:14.242Z,1.80
2018-09-16T11:54:14.256Z,1.40
2018-09-16T11:55:14.277Z,2.00
2018-09-16T11:56:14.287Z,2.40
2018-09-16T11:57:14.308Z,1.90
2018-09-16T11:58:14.321Z,1.80
2018-09-16T11:59:14.335Z,1.90
2018-09-16T12:00:14.351Z,1.90
2018-09-16T12:01:14.370Z,1.70
2018-09-16T12:02:14.385Z,1.40
2018-09-16T12:03:14.398Z,1.70
2018-09-16T12:04:14.414Z,1.60
2018-09-16T12:05:14.473Z,1.70
2018-09-16T12:06:14.443Z,1.60
2018-09-16T12:07:14.511Z,1.50
2018-09-16T12:08:14.627Z,1.50
2018-09-16T12:09:14.816Z,1.80
2018-09-16T12:10:14.509Z,1.60
2018-09-16T12:11:14.523Z,2.20
2018-09-16T12:12:14.540Z,1.90
2018-09-16T12:13:14.556Z,1.80
2018-09-16T12:14:14.570Z,1.50
2018-09-16T12:15:14.585Z,1.80
2018-09-16T12:16:14.704Z,1.80
2018-09-16T12:17:14.617Z,1.90
2018-09-16T12:18:14.633Z,2.20
2018-09-16T12:19:14.647Z,1.80
2018-09-16T12:20:14.663Z,1.80
2018-09-16T12:21:14.680Z,1.70
2018-09-16T12:22:14.699Z,1.60
2018-09-16T12:23:14.716Z,1.40
2018-09-16T12:24:14.728Z,1.60
2018-09-16T12:25:14.743Z,1.60
2018-09-16T12:26:14.761Z,1.60
2018-09-16T12:27:14.786Z,1.80
2018-09-16T12:28:14.791Z,1.70
2018-09-16T12:29:14.808Z,1.30
2018-09-16T12:30:14.825Z,1.60
2018-09-16T12:31:14.841Z,1.60
2018-09-16T12:32:14.856Z,2.00
2018-09-16T12:33:14.870Z,1.90
2018-09-16T12:34:14.890Z,1.80
2018-09-16T12:35:14.901Z,1.50
2018-09-16T12:36:14.916Z,1.80
2018-09-16T12:37:14.935Z,1.80
2018-09-16T12:38:14.951Z,1.90
2018-09-16T12:39:14.969Z,1.70
2018-09-16T12:41:15.230Z,2.00
2018-09-16T12:42:15.059Z,2.00
2018-09-16T12:43:15.043Z,1.70
2018-09-16T12:44:15.045Z,1.90
2018-09-16T12:45:15.111Z,1.90
2018-09-16T12:46:15.082Z,1.80
2018-09-16T12:47:15.093Z,1.50
2018-09-16T12:48:15.109Z,1.90
2018-09-16T12:49:15.126Z,1.70
2018-09-16T12:50:15.141Z,1.80
2018-09-16T12:51:15.157Z,2.00
2018-09-16T12:52:15.174Z,1.70
2018-09-16T12:53:15.190Z,1.70
2018-09-16T12:54:15.206Z,1.40
2018-09-16T12:55:15.220Z,1.70
2018-09-16T12:56:15.240Z,1.50
2018-09-16T12:57:15.256Z,1.70
2018-09-16T12:58:15.270Z,1.70
2018-09-16T12:59:15.286Z,1.80
2018-09-16T13:00:15.532Z,2.10
2018-09-16T13:01:15.319Z,1.60
2018-09-16T13:02:15.336Z,1.70
2018-09-16T13:03:15.349Z,1.80
2018-09-16T13:04:15.414Z,1.60
2018-09-16T13:05:15.384Z,1.90
2018-09-16T13:06:15.410Z,2.00
2018-09-16T13:07:15.419Z,1.60
2018-09-16T13:08:15.433Z,1.70
2018-09-16T13:09:15.453Z,1.60
2018-09-16T13:10:15.466Z,1.70
2018-09-16T13:11:15.506Z,1.30
2018-09-16T13:12:15.501Z,1.60
2018-09-16T13:13:15.546Z,1.60
2018-09-16T13:14:15.534Z,1.80
2018-09-16T13:17:15.715Z,1.80
2018-09-16T13:18:15.598Z,1.60
2018-09-16T13:19:15.623Z,1.70
2018-09-16T13:20:15.632Z,1.50